sensor_id;sensor_type;location;lat;lon;timestamp;temperature;humidity
802;DHT22;383;48.766;9.270;2023-01-26T00:00:49;3.90;90.70
802;DHT22;383;48.766;9.270;2023-01-26T00:03:17;3.80;91.10
802;DHT22;383;48.766;9.270;2023-01-26T00:05:44;3.70;91.20
802;DHT22;383;48.766;9.270;2023-01-26T00:08:11;3.70;91.60
802;DHT22;383;48.766;9.270;2023-01-26T00:10:39;3.70;91.50
802;DHT22;383;48.766;9.270;2023-01-26T00:13:07;3.60;92.00
802;DHT22;383;48.766;9.270;2023-01-26T00:15:35;3.50;92.40
802;DHT22;383;48.766;9.270;2023-01-26T00:18:02;3.50;92.20
802;DHT22;383;48.766;9.270;2023-01-26T00:20:29;3.60;92.20
802;DHT22;383;48.766;9.270;2023-01-26T00:22:56;3.60;91.90
802;DHT22;383;48.766;9.270;2023-01-26T00:25:22;3.60;91.80
802;DHT22;383;48.766;9.270;2023-01-26T00:27:49;3.50;92.30
802;DHT22;383;48.766;9.270;2023-01-26T00:30:16;3.50;92.50
802;DHT22;383;48.766;9.270;2023-01-26T00:32:44;3.40;92.80
802;DHT22;383;48.766;9.270;2023-01-26T00:35:11;3.40;93.20
802;DHT22;383;48.766;9.270;2023-01-26T00:37:40;3.60;92.70
802;DHT22;383;48.766;9.270;2023-01-26T00:40:07;3.50;92.50
802;DHT22;383;48.766;9.270;2023-01-26T00:42:34;3.50;92.70
802;DHT22;383;48.766;9.270;2023-01-26T00:45:01;3.50;93.10
802;DHT22;383;48.766;9.270;2023-01-26T00:47:27;3.50;93.10
802;DHT22;383;48.766;9.270;2023-01-26T00:49:55;3.60;92.70
802;DHT22;383;48.766;9.270;2023-01-26T00:52:22;3.60;92.70
802;DHT22;383;48.766;9.270;2023-01-26T00:54:49;3.60;93.00
802;DHT22;383;48.766;9.270;2023-01-26T00:57:15;3.60;93.00
802;DHT22;383;48.766;9.270;2023-01-26T00:59:42;3.70;93.00
802;DHT22;383;48.766;9.270;2023-01-26T01:02:08;3.70;92.60
802;DHT22;383;48.766;9.270;2023-01-26T01:04:35;3.80;92.10
802;DHT22;383;48.766;9.270;2023-01-26T01:07:03;3.80;91.90
802;DHT22;383;48.766;9.270;2023-01-26T01:09:30;3.80;92.00
802;DHT22;383;48.766;9.270;2023-01-26T01:11:56;3.80;92.10
802;DHT22;383;48.766;9.270;2023-01-26T01:14:23;3.70;92.00
802;DHT22;383;48.766;9.270;2023-01-26T01:16:50;3.70;92.60
802;DHT22;383;48.766;9.270;2023-01-26T01:19:17;3.70;92.90
802;DHT22;383;48.766;9.270;2023-01-26T01:21:44;3.80;92.00
802;DHT22;383;48.766;9.270;2023-01-26T01:24:12;3.80;91.60
802;DHT22;383;48.766;9.270;2023-01-26T01:26:39;3.70;91.80
802;DHT22;383;48.766;9.270;2023-01-26T01:29:06;3.80;91.70
802;DHT22;383;48.766;9.270;2023-01-26T01:31:33;3.70;91.90
802;DHT22;383;48.766;9.270;2023-01-26T01:34:00;3.60;92.00
802;DHT22;383;48.766;9.270;2023-01-26T01:36:26;3.50;92.70
802;DHT22;383;48.766;9.270;2023-01-26T01:38:53;3.50;92.70
802;DHT22;383;48.766;9.270;2023-01-26T01:41:21;3.60;92.60
802;DHT22;383;48.766;9.270;2023-01-26T01:43:48;3.60;92.50
802;DHT22;383;48.766;9.270;2023-01-26T01:46:24;3.60;92.40
802;DHT22;383;48.766;9.270;2023-01-26T01:48:57;3.60;92.50
802;DHT22;383;48.766;9.270;2023-01-26T01:51:30;3.60;92.00
802;DHT22;383;48.766;9.270;2023-01-26T01:54:01;3.50;92.80
802;DHT22;383;48.766;9.270;2023-01-26T01:56:32;3.40;93.30
802;DHT22;383;48.766;9.270;2023-01-26T01:59:00;3.50;93.60
802;DHT22;383;48.766;9.270;2023-01-26T02:01:28;3.50;93.80
802;DHT22;383;48.766;9.270;2023-01-26T02:03:58;3.60;93.40
802;DHT22;383;48.766;9.270;2023-01-26T02:06:28;3.60;92.70
802;DHT22;383;48.766;9.270;2023-01-26T02:08:57;3.60;92.40
802;DHT22;383;48.766;9.270;2023-01-26T02:11:27;3.60;92.40
802;DHT22;383;48.766;9.270;2023-01-26T02:13:57;3.60;92.40
802;DHT22;383;48.766;9.270;2023-01-26T02:16:25;3.50;92.80
802;DHT22;383;48.766;9.270;2023-01-26T02:18:51;3.50;93.00
802;DHT22;383;48.766;9.270;2023-01-26T02:21:19;3.50;93.30
802;DHT22;383;48.766;9.270;2023-01-26T02:23:53;3.40;93.70
802;DHT22;383;48.766;9.270;2023-01-26T02:26:24;3.40;93.90
802;DHT22;383;48.766;9.270;2023-01-26T02:28:52;3.40;94.00
802;DHT22;383;48.766;9.270;2023-01-26T02:31:21;3.50;94.10
802;DHT22;383;48.766;9.270;2023-01-26T02:33:48;3.50;94.10
802;DHT22;383;48.766;9.270;2023-01-26T02:36:18;3.60;93.70
802;DHT22;383;48.766;9.270;2023-01-26T02:38:50;3.60;93.70
802;DHT22;383;48.766;9.270;2023-01-26T02:41:19;3.60;93.70
802;DHT22;383;48.766;9.270;2023-01-26T02:44:01;3.60;93.30
802;DHT22;383;48.766;9.270;2023-01-26T02:46:29;3.50;93.30
802;DHT22;383;48.766;9.270;2023-01-26T02:48:56;3.40;93.80
802;DHT22;383;48.766;9.270;2023-01-26T02:51:40;3.40;93.70
802;DHT22;383;48.766;9.270;2023-01-26T02:54:07;3.40;93.40
802;DHT22;383;48.766;9.270;2023-01-26T02:56:33;3.40;94.10
802;DHT22;383;48.766;9.270;2023-01-26T02:59:05;3.30;94.20
802;DHT22;383;48.766;9.270;2023-01-26T03:01:32;3.30;94.60
802;DHT22;383;48.766;9.270;2023-01-26T03:03:58;3.20;94.80
802;DHT22;383;48.766;9.270;2023-01-26T03:06:25;3.20;94.80
802;DHT22;383;48.766;9.270;2023-01-26T03:08:51;3.20;95.10
802;DHT22;383;48.766;9.270;2023-01-26T03:11:18;3.20;95.20
802;DHT22;383;48.766;9.270;2023-01-26T03:13:45;3.30;94.70
802;DHT22;383;48.766;9.270;2023-01-26T03:16:13;3.30;94.80
802;DHT22;383;48.766;9.270;2023-01-26T03:18:42;3.30;94.30
802;DHT22;383;48.766;9.270;2023-01-26T03:21:27;3.20;94.20
802;DHT22;383;48.766;9.270;2023-01-26T03:24:12;3.10;95.20
802;DHT22;383;48.766;9.270;2023-01-26T03:26:56;3.00;95.60
802;DHT22;383;48.766;9.270;2023-01-26T03:29:40;2.90;95.60
802;DHT22;383;48.766;9.270;2023-01-26T03:32:08;2.80;96.00
802;DHT22;383;48.766;9.270;2023-01-26T03:34:35;2.80;96.00
802;DHT22;383;48.766;9.270;2023-01-26T03:37:01;2.80;95.80
802;DHT22;383;48.766;9.270;2023-01-26T03:39:28;2.80;95.90
802;DHT22;383;48.766;9.270;2023-01-26T03:42:12;2.70;96.50
802;DHT22;383;48.766;9.270;2023-01-26T03:44:56;2.70;96.50
802;DHT22;383;48.766;9.270;2023-01-26T03:47:42;2.60;96.50
802;DHT22;383;48.766;9.270;2023-01-26T03:50:26;2.60;96.70
802;DHT22;383;48.766;9.270;2023-01-26T03:53:12;2.50;96.50
802;DHT22;383;48.766;9.270;2023-01-26T03:55:56;2.50;96.70
802;DHT22;383;48.766;9.270;2023-01-26T03:58:42;2.50;96.80
802;DHT22;383;48.766;9.270;2023-01-26T04:01:09;2.50;96.80
802;DHT22;383;48.766;9.270;2023-01-26T04:03:46;2.40;97.30
802;DHT22;383;48.766;9.270;2023-01-26T04:06:30;2.40;97.50
802;DHT22;383;48.766;9.270;2023-01-26T04:09:15;2.40;97.10
802;DHT22;383;48.766;9.270;2023-01-26T04:11:41;2.40;96.80
802;DHT22;383;48.766;9.270;2023-01-26T04:14:10;2.30;96.80
802;DHT22;383;48.766;9.270;2023-01-26T04:16:55;2.20;97.40
802;DHT22;383;48.766;9.270;2023-01-26T04:19:40;2.20;97.40
802;DHT22;383;48.766;9.270;2023-01-26T04:22:25;2.10;97.70
802;DHT22;383;48.766;9.270;2023-01-26T04:24:52;2.20;97.80
802;DHT22;383;48.766;9.270;2023-01-26T04:27:19;2.20;97.70
802;DHT22;383;48.766;9.270;2023-01-26T04:29:45;2.20;98.00
802;DHT22;383;48.766;9.270;2023-01-26T04:32:12;2.30;97.90
802;DHT22;383;48.766;9.270;2023-01-26T04:34:39;2.40;97.80
802;DHT22;383;48.766;9.270;2023-01-26T04:37:07;2.40;97.30
802;DHT22;383;48.766;9.270;2023-01-26T04:39:34;2.40;97.10
802;DHT22;383;48.766;9.270;2023-01-26T04:42:01;2.40;97.30
802;DHT22;383;48.766;9.270;2023-01-26T04:44:27;2.40;97.40
802;DHT22;383;48.766;9.270;2023-01-26T04:46:54;2.40;97.30
802;DHT22;383;48.766;9.270;2023-01-26T04:49:21;2.40;97.40
802;DHT22;383;48.766;9.270;2023-01-26T04:51:47;2.40;97.20
802;DHT22;383;48.766;9.270;2023-01-26T04:54:15;2.40;97.40
802;DHT22;383;48.766;9.270;2023-01-26T04:56:42;2.40;97.30
802;DHT22;383;48.766;9.270;2023-01-26T04:59:09;2.40;97.20
802;DHT22;383;48.766;9.270;2023-01-26T05:01:36;2.40;97.10
802;DHT22;383;48.766;9.270;2023-01-26T05:04:04;2.40;97.10
802;DHT22;383;48.766;9.270;2023-01-26T05:06:31;2.30;96.90
802;DHT22;383;48.766;9.270;2023-01-26T05:08:58;2.20;96.90
802;DHT22;383;48.766;9.270;2023-01-26T05:11:26;2.20;97.30
802;DHT22;383;48.766;9.270;2023-01-26T05:13:53;2.20;97.40
802;DHT22;383;48.766;9.270;2023-01-26T05:16:19;2.10;97.50
802;DHT22;383;48.766;9.270;2023-01-26T05:18:46;2.10;97.60
802;DHT22;383;48.766;9.270;2023-01-26T05:21:13;2.00;97.80
802;DHT22;383;48.766;9.270;2023-01-26T05:23:40;2.00;97.70
802;DHT22;383;48.766;9.270;2023-01-26T05:26:07;2.00;97.60
802;DHT22;383;48.766;9.270;2023-01-26T05:28:35;1.90;97.80
802;DHT22;383;48.766;9.270;2023-01-26T05:31:02;1.90;98.20
802;DHT22;383;48.766;9.270;2023-01-26T05:33:29;2.00;98.10
802;DHT22;383;48.766;9.270;2023-01-26T05:35:56;2.00;98.10
802;DHT22;383;48.766;9.270;2023-01-26T05:38:23;2.00;97.90
802;DHT22;383;48.766;9.270;2023-01-26T05:40:50;1.90;97.90
802;DHT22;383;48.766;9.270;2023-01-26T05:43:17;1.90;98.20
802;DHT22;383;48.766;9.270;2023-01-26T05:45:45;1.90;97.50
802;DHT22;383;48.766;9.270;2023-01-26T05:48:12;1.80;97.70
802;DHT22;383;48.766;9.270;2023-01-26T05:50:38;1.90;97.90
802;DHT22;383;48.766;9.270;2023-01-26T05:53:05;1.90;97.80
802;DHT22;383;48.766;9.270;2023-01-26T05:55:32;1.90;98.10
802;DHT22;383;48.766;9.270;2023-01-26T05:57:59;1.90;98.50
802;DHT22;383;48.766;9.270;2023-01-26T06:00:25;2.10;98.10
802;DHT22;383;48.766;9.270;2023-01-26T06:02:53;2.10;97.50
802;DHT22;383;48.766;9.270;2023-01-26T06:05:20;2.10;97.00
802;DHT22;383;48.766;9.270;2023-01-26T06:07:47;2.20;96.60
802;DHT22;383;48.766;9.270;2023-01-26T06:10:13;2.20;96.40
802;DHT22;383;48.766;9.270;2023-01-26T06:12:40;2.20;95.80
802;DHT22;383;48.766;9.270;2023-01-26T06:15:08;2.20;95.70
802;DHT22;383;48.766;9.270;2023-01-26T06:17:36;2.10;96.40
802;DHT22;383;48.766;9.270;2023-01-26T06:20:05;2.10;96.50
802;DHT22;383;48.766;9.270;2023-01-26T06:22:32;2.10;96.30
802;DHT22;383;48.766;9.270;2023-01-26T06:24:59;2.00;96.10
802;DHT22;383;48.766;9.270;2023-01-26T06:27:26;1.90;96.50
802;DHT22;383;48.766;9.270;2023-01-26T06:29:53;1.90;97.20
802;DHT22;383;48.766;9.270;2023-01-26T06:32:19;1.90;97.10
802;DHT22;383;48.766;9.270;2023-01-26T06:34:46;1.90;97.20
802;DHT22;383;48.766;9.270;2023-01-26T06:37:14;1.90;96.60
802;DHT22;383;48.766;9.270;2023-01-26T06:39:41;1.90;96.50
802;DHT22;383;48.766;9.270;2023-01-26T06:42:08;1.80;97.00
802;DHT22;383;48.766;9.270;2023-01-26T06:44:34;1.80;97.50
802;DHT22;383;48.766;9.270;2023-01-26T06:47:01;1.80;97.60
802;DHT22;383;48.766;9.270;2023-01-26T06:49:28;1.90;97.40
802;DHT22;383;48.766;9.270;2023-01-26T06:51:57;2.00;96.80
802;DHT22;383;48.766;9.270;2023-01-26T06:54:25;1.90;96.80
802;DHT22;383;48.766;9.270;2023-01-26T06:56:52;1.90;96.40
802;DHT22;383;48.766;9.270;2023-01-26T06:59:18;1.90;96.90
802;DHT22;383;48.766;9.270;2023-01-26T07:01:46;1.90;97.10
802;DHT22;383;48.766;9.270;2023-01-26T07:04:14;1.90;97.20
802;DHT22;383;48.766;9.270;2023-01-26T07:06:41;1.90;97.10
802;DHT22;383;48.766;9.270;2023-01-26T07:09:08;1.90;96.80
802;DHT22;383;48.766;9.270;2023-01-26T07:11:36;1.90;96.80
802;DHT22;383;48.766;9.270;2023-01-26T07:14:03;1.90;96.80
802;DHT22;383;48.766;9.270;2023-01-26T07:16:29;1.90;97.10
802;DHT22;383;48.766;9.270;2023-01-26T07:18:56;1.90;97.20
802;DHT22;383;48.766;9.270;2023-01-26T07:21:23;1.90;97.50
802;DHT22;383;48.766;9.270;2023-01-26T07:23:50;1.90;97.30
802;DHT22;383;48.766;9.270;2023-01-26T07:26:18;2.00;96.80
802;DHT22;383;48.766;9.270;2023-01-26T07:28:46;2.00;96.60
802;DHT22;383;48.766;9.270;2023-01-26T07:31:13;2.00;96.70
802;DHT22;383;48.766;9.270;2023-01-26T07:33:40;1.90;96.60
802;DHT22;383;48.766;9.270;2023-01-26T07:36:08;1.90;96.80
802;DHT22;383;48.766;9.270;2023-01-26T07:38:36;1.90;96.80
802;DHT22;383;48.766;9.270;2023-01-26T07:41:08;1.90;96.70
802;DHT22;383;48.766;9.270;2023-01-26T07:43:36;1.90;96.30
802;DHT22;383;48.766;9.270;2023-01-26T07:46:04;1.80;96.60
802;DHT22;383;48.766;9.270;2023-01-26T07:48:31;1.80;96.90
802;DHT22;383;48.766;9.270;2023-01-26T07:50:59;1.90;96.70
802;DHT22;383;48.766;9.270;2023-01-26T07:53:26;1.90;96.40
802;DHT22;383;48.766;9.270;2023-01-26T07:56:03;1.90;96.60
802;DHT22;383;48.766;9.270;2023-01-26T07:58:31;1.90;96.50
802;DHT22;383;48.766;9.270;2023-01-26T08:01:09;1.90;96.60
802;DHT22;383;48.766;9.270;2023-01-26T08:03:36;1.90;96.60
802;DHT22;383;48.766;9.270;2023-01-26T08:06:04;2.00;96.20
802;DHT22;383;48.766;9.270;2023-01-26T08:08:32;2.00;95.70
802;DHT22;383;48.766;9.270;2023-01-26T08:10:59;2.00;95.40
802;DHT22;383;48.766;9.270;2023-01-26T08:13:27;2.00;94.80
802;DHT22;383;48.766;9.270;2023-01-26T08:15:54;2.00;94.50
802;DHT22;383;48.766;9.270;2023-01-26T08:18:22;2.00;94.10
802;DHT22;383;48.766;9.270;2023-01-26T08:20:49;1.90;94.70
802;DHT22;383;48.766;9.270;2023-01-26T08:23:16;2.00;94.90
802;DHT22;383;48.766;9.270;2023-01-26T08:25:43;2.00;94.50
802;DHT22;383;48.766;9.270;2023-01-26T08:28:10;2.00;94.70
802;DHT22;383;48.766;9.270;2023-01-26T08:30:37;2.00;94.40
802;DHT22;383;48.766;9.270;2023-01-26T08:33:04;2.00;94.20
802;DHT22;383;48.766;9.270;2023-01-26T08:35:33;2.00;94.80
802;DHT22;383;48.766;9.270;2023-01-26T08:37:59;2.00;94.80
802;DHT22;383;48.766;9.270;2023-01-26T08:40:26;2.00;94.90
802;DHT22;383;48.766;9.270;2023-01-26T08:42:53;2.10;94.70
802;DHT22;383;48.766;9.270;2023-01-26T08:45:20;2.00;94.40
802;DHT22;383;48.766;9.270;2023-01-26T08:47:48;2.00;94.50
802;DHT22;383;48.766;9.270;2023-01-26T08:50:15;2.00;94.30
802;DHT22;383;48.766;9.270;2023-01-26T08:52:43;2.00;94.40
802;DHT22;383;48.766;9.270;2023-01-26T08:55:10;2.00;94.80
802;DHT22;383;48.766;9.270;2023-01-26T08:57:37;2.00;95.10
802;DHT22;383;48.766;9.270;2023-01-26T09:00:04;2.10;94.80
802;DHT22;383;48.766;9.270;2023-01-26T09:02:31;2.10;94.40
802;DHT22;383;48.766;9.270;2023-01-26T09:04:58;2.10;94.40
802;DHT22;383;48.766;9.270;2023-01-26T09:07:25;2.10;93.80
802;DHT22;383;48.766;9.270;2023-01-26T09:09:53;2.20;93.40
802;DHT22;383;48.766;9.270;2023-01-26T09:12:19;2.20;93.60
802;DHT22;383;48.766;9.270;2023-01-26T09:14:46;2.20;93.50
802;DHT22;383;48.766;9.270;2023-01-26T09:17:13;2.30;93.20
802;DHT22;383;48.766;9.270;2023-01-26T09:19:39;2.30;93.00
802;DHT22;383;48.766;9.270;2023-01-26T09:22:06;2.30;92.20
802;DHT22;383;48.766;9.270;2023-01-26T09:24:33;2.40;91.60
802;DHT22;383;48.766;9.270;2023-01-26T09:27:01;2.30;91.40
802;DHT22;383;48.766;9.270;2023-01-26T09:29:27;2.30;92.20
802;DHT22;383;48.766;9.270;2023-01-26T09:31:54;2.30;91.80
802;DHT22;383;48.766;9.270;2023-01-26T09:34:21;2.40;91.60
802;DHT22;383;48.766;9.270;2023-01-26T09:36:49;2.40;90.70
802;DHT22;383;48.766;9.270;2023-01-26T09:39:16;2.40;90.10
802;DHT22;383;48.766;9.270;2023-01-26T09:41:50;2.50;90.10
802;DHT22;383;48.766;9.270;2023-01-26T09:44:24;2.50;89.70
802;DHT22;383;48.766;9.270;2023-01-26T09:47:00;2.60;89.30
802;DHT22;383;48.766;9.270;2023-01-26T09:49:34;2.60;88.90
802;DHT22;383;48.766;9.270;2023-01-26T09:52:11;2.40;89.70
802;DHT22;383;48.766;9.270;2023-01-26T09:54:45;2.40;89.70
802;DHT22;383;48.766;9.270;2023-01-26T09:57:15;2.30;90.60
802;DHT22;383;48.766;9.270;2023-01-26T09:59:49;2.40;90.40
802;DHT22;383;48.766;9.270;2023-01-26T10:02:22;2.40;90.20
802;DHT22;383;48.766;9.270;2023-01-26T10:04:57;2.30;90.30
802;DHT22;383;48.766;9.270;2023-01-26T10:07:26;2.30;90.10
802;DHT22;383;48.766;9.270;2023-01-26T10:09:53;2.30;89.80
802;DHT22;383;48.766;9.270;2023-01-26T10:12:24;2.30;90.20
802;DHT22;383;48.766;9.270;2023-01-26T10:14:57;2.40;90.20
802;DHT22;383;48.766;9.270;2023-01-26T10:17:31;2.40;89.60
802;DHT22;383;48.766;9.270;2023-01-26T10:20:03;2.40;90.20
802;DHT22;383;48.766;9.270;2023-01-26T10:22:37;2.30;89.80
802;DHT22;383;48.766;9.270;2023-01-26T10:25:13;2.30;89.90
802;DHT22;383;48.766;9.270;2023-01-26T10:27:41;2.40;90.30
802;DHT22;383;48.766;9.270;2023-01-26T10:30:13;2.30;90.70
802;DHT22;383;48.766;9.270;2023-01-26T10:32:41;2.40;91.00
802;DHT22;383;48.766;9.270;2023-01-26T10:35:15;2.40;90.90
802;DHT22;383;48.766;9.270;2023-01-26T10:37:42;2.50;90.40
802;DHT22;383;48.766;9.270;2023-01-26T10:40:10;2.50;90.90
802;DHT22;383;48.766;9.270;2023-01-26T10:42:39;2.50;90.20
802;DHT22;383;48.766;9.270;2023-01-26T10:45:25;2.50;89.70
802;DHT22;383;48.766;9.270;2023-01-26T10:48:03;2.50;89.90
802;DHT22;383;48.766;9.270;2023-01-26T10:50:30;2.60;89.60
802;DHT22;383;48.766;9.270;2023-01-26T10:52:58;2.60;88.80
802;DHT22;383;48.766;9.270;2023-01-26T10:55:27;2.60;89.20
802;DHT22;383;48.766;9.270;2023-01-26T10:57:54;2.50;89.80
802;DHT22;383;48.766;9.270;2023-01-26T11:00:27;2.50;89.90
802;DHT22;383;48.766;9.270;2023-01-26T11:02:57;2.60;88.90
802;DHT22;383;48.766;9.270;2023-01-26T11:05:26;2.50;88.60
802;DHT22;383;48.766;9.270;2023-01-26T11:07:54;2.50;89.40
802;DHT22;383;48.766;9.270;2023-01-26T11:10:27;2.50;89.90
802;DHT22;383;48.766;9.270;2023-01-26T11:13:15;2.40;89.60
802;DHT22;383;48.766;9.270;2023-01-26T11:15:46;2.40;89.80
802;DHT22;383;48.766;9.270;2023-01-26T11:18:20;2.40;90.50
802;DHT22;383;48.766;9.270;2023-01-26T11:20:52;2.40;90.60
802;DHT22;383;48.766;9.270;2023-01-26T11:23:50;2.40;90.70
802;DHT22;383;48.766;9.270;2023-01-26T11:26:39;2.40;90.10
802;DHT22;383;48.766;9.270;2023-01-26T11:29:45;2.30;89.60
802;DHT22;383;48.766;9.270;2023-01-26T11:32:22;2.30;90.10
802;DHT22;383;48.766;9.270;2023-01-26T11:35:00;2.20;90.70
802;DHT22;383;48.766;9.270;2023-01-26T11:37:42;2.10;90.40
802;DHT22;383;48.766;9.270;2023-01-26T11:40:21;2.10;89.80
802;DHT22;383;48.766;9.270;2023-01-26T11:42:57;2.10;89.70
802;DHT22;383;48.766;9.270;2023-01-26T11:45:34;2.10;90.00
802;DHT22;383;48.766;9.270;2023-01-26T11:48:13;2.20;89.70
802;DHT22;383;48.766;9.270;2023-01-26T11:50:45;2.10;88.60
802;DHT22;383;48.766;9.270;2023-01-26T11:53:30;2.10;89.40
802;DHT22;383;48.766;9.270;2023-01-26T11:56:09;2.10;89.20
802;DHT22;383;48.766;9.270;2023-01-26T11:58:41;2.00;89.90
802;DHT22;383;48.766;9.270;2023-01-26T12:01:14;2.00;89.90
802;DHT22;383;48.766;9.270;2023-01-26T12:03:46;2.10;89.90
802;DHT22;383;48.766;9.270;2023-01-26T12:06:16;2.10;89.90
802;DHT22;383;48.766;9.270;2023-01-26T12:08:48;2.10;90.00
802;DHT22;383;48.766;9.270;2023-01-26T12:11:21;2.10;88.60
802;DHT22;383;48.766;9.270;2023-01-26T12:16:52;2.20;89.40
802;DHT22;383;48.766;9.270;2023-01-26T12:19:33;2.40;88.60
802;DHT22;383;48.766;9.270;2023-01-26T12:22:08;2.50;89.30
802;DHT22;383;48.766;9.270;2023-01-26T12:24:40;2.50;89.30
802;DHT22;383;48.766;9.270;2023-01-26T12:27:15;2.50;89.40
802;DHT22;383;48.766;9.270;2023-01-26T12:29:48;2.70;88.20
802;DHT22;383;48.766;9.270;2023-01-26T12:32:16;2.70;87.80
802;DHT22;383;48.766;9.270;2023-01-26T12:34:44;2.70;87.40
802;DHT22;383;48.766;9.270;2023-01-26T12:37:38;2.70;87.80
802;DHT22;383;48.766;9.270;2023-01-26T12:40:14;2.70;87.80
802;DHT22;383;48.766;9.270;2023-01-26T12:42:51;2.60;88.40
802;DHT22;383;48.766;9.270;2023-01-26T12:45:24;2.50;88.60
802;DHT22;383;48.766;9.270;2023-01-26T12:47:55;2.40;88.80
802;DHT22;383;48.766;9.270;2023-01-26T12:50:30;2.20;89.60
802;DHT22;383;48.766;9.270;2023-01-26T12:53:04;2.20;89.40
802;DHT22;383;48.766;9.270;2023-01-26T12:55:39;2.20;90.10
802;DHT22;383;48.766;9.270;2023-01-26T12:58:11;2.10;90.60
802;DHT22;383;48.766;9.270;2023-01-26T13:00:39;2.10;90.60
802;DHT22;383;48.766;9.270;2023-01-26T13:03:14;2.10;90.50
802;DHT22;383;48.766;9.270;2023-01-26T13:05:56;2.10;90.70
802;DHT22;383;48.766;9.270;2023-01-26T13:08:47;2.00;90.40
802;DHT22;383;48.766;9.270;2023-01-26T13:11:43;2.00;90.90
802;DHT22;383;48.766;9.270;2023-01-26T13:14:35;2.10;90.10
802;DHT22;383;48.766;9.270;2023-01-26T13:17:40;2.10;90.20
802;DHT22;383;48.766;9.270;2023-01-26T13:23:50;2.30;89.30
802;DHT22;383;48.766;9.270;2023-01-26T13:26:19;2.20;88.60
802;DHT22;383;48.766;9.270;2023-01-26T13:28:47;2.10;89.20
802;DHT22;383;48.766;9.270;2023-01-26T13:31:30;2.10;89.40
802;DHT22;383;48.766;9.270;2023-01-26T13:33:59;2.00;89.90
802;DHT22;383;48.766;9.270;2023-01-26T13:36:29;2.10;90.20
802;DHT22;383;48.766;9.270;2023-01-26T13:39:01;2.10;90.10
802;DHT22;383;48.766;9.270;2023-01-26T13:41:28;2.10;89.80
802;DHT22;383;48.766;9.270;2023-01-26T13:44:01;2.20;89.00
802;DHT22;383;48.766;9.270;2023-01-26T13:46:33;2.30;88.20
802;DHT22;383;48.766;9.270;2023-01-26T13:49:01;2.30;87.70
802;DHT22;383;48.766;9.270;2023-01-26T13:51:29;2.30;89.20
802;DHT22;383;48.766;9.270;2023-01-26T13:54:01;2.30;89.30
802;DHT22;383;48.766;9.270;2023-01-26T13:56:30;2.40;88.20
802;DHT22;383;48.766;9.270;2023-01-26T13:59:09;2.40;88.00
802;DHT22;383;48.766;9.270;2023-01-26T14:01:41;2.60;87.70
802;DHT22;383;48.766;9.270;2023-01-26T14:04:13;2.70;87.20
802;DHT22;383;48.766;9.270;2023-01-26T14:06:41;2.70;87.20
802;DHT22;383;48.766;9.270;2023-01-26T14:09:12;2.70;87.30
802;DHT22;383;48.766;9.270;2023-01-26T14:11:39;2.60;88.00
802;DHT22;383;48.766;9.270;2023-01-26T14:14:18;2.60;88.20
802;DHT22;383;48.766;9.270;2023-01-26T14:16:47;2.60;88.20
802;DHT22;383;48.766;9.270;2023-01-26T14:19:15;2.70;88.50
802;DHT22;383;48.766;9.270;2023-01-26T14:21:48;2.60;88.10
802;DHT22;383;48.766;9.270;2023-01-26T14:24:17;2.60;88.60
802;DHT22;383;48.766;9.270;2023-01-26T14:26:46;2.70;88.10
802;DHT22;383;48.766;9.270;2023-01-26T14:29:19;2.70;87.30
802;DHT22;383;48.766;9.270;2023-01-26T14:31:46;2.70;87.70
802;DHT22;383;48.766;9.270;2023-01-26T14:34:17;2.70;87.40
802;DHT22;383;48.766;9.270;2023-01-26T14:36:44;2.70;87.30
802;DHT22;383;48.766;9.270;2023-01-26T14:39:17;2.60;87.40
802;DHT22;383;48.766;9.270;2023-01-26T14:41:44;2.60;87.10
802;DHT22;383;48.766;9.270;2023-01-26T14:44:14;2.50;87.20
802;DHT22;383;48.766;9.270;2023-01-26T14:46:50;2.40;87.70
802;DHT22;383;48.766;9.270;2023-01-26T14:49:22;2.30;87.60
802;DHT22;383;48.766;9.270;2023-01-26T14:51:54;2.30;88.10
802;DHT22;383;48.766;9.270;2023-01-26T14:54:27;2.30;88.40
802;DHT22;383;48.766;9.270;2023-01-26T14:56:55;2.20;88.60
802;DHT22;383;48.766;9.270;2023-01-26T14:59:27;2.20;88.90
802;DHT22;383;48.766;9.270;2023-01-26T15:02:14;2.20;89.20
802;DHT22;383;48.766;9.270;2023-01-26T15:04:46;2.20;89.20
802;DHT22;383;48.766;9.270;2023-01-26T15:07:36;2.20;89.20
802;DHT22;383;48.766;9.270;2023-01-26T15:10:34;2.20;89.30
802;DHT22;383;48.766;9.270;2023-01-26T15:13:05;2.30;89.00
802;DHT22;383;48.766;9.270;2023-01-26T15:15:34;2.30;89.60
802;DHT22;383;48.766;9.270;2023-01-26T15:18:15;2.20;88.90
802;DHT22;383;48.766;9.270;2023-01-26T15:20:44;2.10;89.40
802;DHT22;383;48.766;9.270;2023-01-26T15:23:23;2.10;89.70
802;DHT22;383;48.766;9.270;2023-01-26T15:25:52;2.10;90.10
802;DHT22;383;48.766;9.270;2023-01-26T15:28:22;2.10;89.70
802;DHT22;383;48.766;9.270;2023-01-26T15:30:51;2.10;89.60
802;DHT22;383;48.766;9.270;2023-01-26T15:33:39;2.20;89.20
802;DHT22;383;48.766;9.270;2023-01-26T15:36:23;2.30;88.80
802;DHT22;383;48.766;9.270;2023-01-26T15:38:55;2.30;89.30
802;DHT22;383;48.766;9.270;2023-01-26T15:41:25;2.30;89.40
802;DHT22;383;48.766;9.270;2023-01-26T15:43:51;2.30;89.60
802;DHT22;383;48.766;9.270;2023-01-26T15:46:18;2.30;89.80
802;DHT22;383;48.766;9.270;2023-01-26T15:48:45;2.40;89.80
802;DHT22;383;48.766;9.270;2023-01-26T15:51:12;2.40;89.30
802;DHT22;383;48.766;9.270;2023-01-26T15:53:39;2.40;88.80
802;DHT22;383;48.766;9.270;2023-01-26T15:56:10;2.40;89.00
802;DHT22;383;48.766;9.270;2023-01-26T15:58:38;2.40;88.60
802;DHT22;383;48.766;9.270;2023-01-26T16:01:05;2.40;89.20
802;DHT22;383;48.766;9.270;2023-01-26T16:03:33;2.40;89.20
802;DHT22;383;48.766;9.270;2023-01-26T16:05:59;2.50;88.20
802;DHT22;383;48.766;9.270;2023-01-26T16:08:26;2.50;87.60
802;DHT22;383;48.766;9.270;2023-01-26T16:10:53;2.60;87.20
802;DHT22;383;48.766;9.270;2023-01-26T16:13:21;2.50;86.70
802;DHT22;383;48.766;9.270;2023-01-26T16:15:50;2.50;86.30
802;DHT22;383;48.766;9.270;2023-01-26T16:18:18;2.40;86.50
802;DHT22;383;48.766;9.270;2023-01-26T16:20:47;2.40;85.90
802;DHT22;383;48.766;9.270;2023-01-26T16:23:20;2.40;86.40
802;DHT22;383;48.766;9.270;2023-01-26T16:25:47;2.30;86.80
802;DHT22;383;48.766;9.270;2023-01-26T16:28:15;2.30;87.10
802;DHT22;383;48.766;9.270;2023-01-26T16:30:43;2.20;87.80
802;DHT22;383;48.766;9.270;2023-01-26T16:33:13;2.20;87.40
802;DHT22;383;48.766;9.270;2023-01-26T16:35:40;2.10;88.50
802;DHT22;383;48.766;9.270;2023-01-26T16:38:06;2.20;88.90
802;DHT22;383;48.766;9.270;2023-01-26T16:40:38;2.20;88.60
802;DHT22;383;48.766;9.270;2023-01-26T16:43:12;2.20;88.60
802;DHT22;383;48.766;9.270;2023-01-26T16:45:40;2.30;88.90
802;DHT22;383;48.766;9.270;2023-01-26T16:48:11;2.30;88.90
802;DHT22;383;48.766;9.270;2023-01-26T16:50:39;2.30;89.00
802;DHT22;383;48.766;9.270;2023-01-26T16:53:15;2.20;89.00
802;DHT22;383;48.766;9.270;2023-01-26T16:55:43;2.10;90.00
802;DHT22;383;48.766;9.270;2023-01-26T16:58:09;2.20;89.70
802;DHT22;383;48.766;9.270;2023-01-26T17:00:36;2.20;89.40
802;DHT22;383;48.766;9.270;2023-01-26T17:03:03;2.20;89.40
802;DHT22;383;48.766;9.270;2023-01-26T17:05:32;2.20;89.90
802;DHT22;383;48.766;9.270;2023-01-26T17:07:58;2.20;89.90
802;DHT22;383;48.766;9.270;2023-01-26T17:10:25;2.20;90.60
802;DHT22;383;48.766;9.270;2023-01-26T17:12:52;2.30;90.40
802;DHT22;383;48.766;9.270;2023-01-26T17:15:19;2.20;90.90
802;DHT22;383;48.766;9.270;2023-01-26T17:17:47;2.20;91.30
802;DHT22;383;48.766;9.270;2023-01-26T17:20:14;2.20;91.70